createdAt,value
2023-04-30T00:02:20.503Z,98085.68
2023-04-30T00:05:22.352Z,98084.69
2023-04-30T00:08:24.004Z,98084.30
2023-04-30T00:11:25.782Z,98091.39
2023-04-30T00:14:27.562Z,98087.79
2023-04-30T00:17:29.442Z,98090.01
2023-04-30T00:20:31.889Z,98084.96
2023-04-30T00:23:33.664Z,98086.22
2023-04-30T00:26:35.310Z,98090.73
2023-04-30T00:29:37.203Z,98089.96
2023-04-30T00:32:39.112Z,98092.23
2023-04-30T00:35:41.774Z,98093.29
2023-04-30T00:38:43.552Z,98095.74
2023-04-30T00:41:45.630Z,98098.58
2023-04-30T00:44:47.566Z,98098.13
2023-04-30T00:47:49.662Z,98104.11
2023-04-30T00:50:51.369Z,98100.27
2023-04-30T00:53:53.502Z,98105.54
2023-04-30T00:56:55.810Z,98106.02
2023-04-30T00:59:58.013Z,98102.98
2023-04-30T01:03:00.277Z,98107.40
2023-04-30T01:06:02.806Z,98106.08
2023-04-30T01:09:04.885Z,98109.09
2023-04-30T01:12:20.928Z,98105.26
2023-04-30T01:15:37.795Z,98108.18
2023-04-30T01:18:47.720Z,98112.42
2023-04-30T01:21:50.210Z,98116.94
2023-04-30T01:25:00.949Z,98116.08
2023-04-30T01:28:16.004Z,98122.05
2023-04-30T01:31:19.420Z,98122.80
2023-04-30T01:34:21.210Z,98120.20
2023-04-30T01:37:37.922Z,98125.65
2023-04-30T01:40:45.774Z,98130.61
2023-04-30T01:44:11.631Z,98129.16
2023-04-30T01:47:29.938Z,98132.39
2023-04-30T01:50:46.781Z,98133.82
2023-04-30T01:53:49.038Z,98139.66
2023-04-30T01:56:55.993Z,98140.52
2023-04-30T01:59:57.909Z,98145.90
2023-04-30T02:02:59.789Z,98146.89
2023-04-30T02:06:01.636Z,98155.58
2023-04-30T02:09:05.584Z,98163.98
2023-04-30T02:12:07.444Z,98172.53
2023-04-30T02:15:09.951Z,98177.38
2023-04-30T02:18:11.720Z,98180.55
2023-04-30T02:21:13.779Z,98187.93
2023-04-30T02:24:15.468Z,98188.14
2023-04-30T02:27:17.654Z,98193.28
2023-04-30T02:30:20.290Z,98204.48
2023-04-30T02:33:22.311Z,98208.61
2023-04-30T02:36:23.997Z,98213.54
2023-04-30T02:39:26.419Z,98214.02
2023-04-30T02:42:28.175Z,98215.52
2023-04-30T02:45:31.493Z,98216.48
2023-04-30T02:48:33.220Z,98217.82
2023-04-30T02:51:34.886Z,98224.35
2023-04-30T02:54:36.575Z,98224.69
2023-04-30T02:57:38.472Z,98224.59
2023-04-30T03:00:40.267Z,98228.38
2023-04-30T03:03:42.003Z,98233.16
2023-04-30T03:06:43.986Z,98235.85
2023-04-30T03:09:46.160Z,98244.59
2023-04-30T03:12:47.909Z,98240.19
2023-04-30T03:15:49.743Z,98249.46
2023-04-30T03:18:51.479Z,98251.74
2023-04-30T03:21:54.482Z,98255.90
2023-04-30T03:24:56.204Z,98262.76
2023-04-30T03:27:57.969Z,98264.33
2023-04-30T03:31:04.582Z,98269.60
2023-04-30T03:34:06.483Z,98269.91
2023-04-30T03:37:08.429Z,98271.88
2023-04-30T03:40:11.034Z,98275.73
2023-04-30T03:43:12.728Z,98274.94
2023-04-30T03:46:14.512Z,98275.02
2023-04-30T03:49:16.245Z,98280.61
2023-04-30T03:52:17.997Z,98286.04
2023-04-30T03:55:20.026Z,98286.20
2023-04-30T03:58:22.037Z,98292.48
2023-04-30T04:01:24.130Z,98297.90
2023-04-30T04:04:25.999Z,98297.67
2023-04-30T04:07:28.868Z,98299.48
2023-04-30T04:10:31.860Z,98304.66
2023-04-30T04:13:33.865Z,98308.35
2023-04-30T04:16:36.673Z,98314.56
2023-04-30T04:19:38.517Z,98315.52
2023-04-30T04:22:40.373Z,98314.40
2023-04-30T04:25:43.747Z,98317.07
2023-04-30T04:28:47.088Z,98322.10
2023-04-30T04:31:50.448Z,98321.80
2023-04-30T04:34:53.748Z,98329.27
2023-04-30T04:37:55.877Z,98334.36
2023-04-30T04:40:57.647Z,98336.41
2023-04-30T04:44:01.154Z,98337.73
2023-04-30T04:47:03.765Z,98343.70
2023-04-30T04:50:07.141Z,98351.02
2023-04-30T04:53:08.945Z,98355.75
2023-04-30T04:56:10.676Z,98359.74
2023-04-30T04:59:12.749Z,98363.21
2023-04-30T05:02:14.500Z,98369.73
2023-04-30T05:05:16.504Z,98375.23
2023-04-30T05:08:18.315Z,98378.39
2023-04-30T05:11:22.138Z,98383.48
2023-04-30T05:14:24.876Z,98391.42
2023-04-30T05:17:26.702Z,98396.77
2023-04-30T05:20:28.558Z,98402.82
2023-04-30T05:23:30.293Z,98410.05
2023-04-30T05:26:31.983Z,98414.69
2023-04-30T05:29:33.644Z,98414.86
2023-04-30T05:32:35.380Z,98420.12
2023-04-30T05:35:37.107Z,98420.60
2023-04-30T05:38:38.868Z,98423.58
2023-04-30T05:41:40.700Z,98433.41
2023-04-30T05:44:42.428Z,98433.17
2023-04-30T05:47:44.356Z,98437.34
2023-04-30T05:50:46.095Z,98441.59
2023-04-30T05:53:47.762Z,98444.84
2023-04-30T05:56:49.571Z,98444.69
2023-04-30T05:59:51.289Z,98447.03
2023-04-30T06:02:53.100Z,98450.54
2023-04-30T06:05:54.878Z,98449.73
2023-04-30T06:08:57.102Z,98449.45
2023-04-30T06:11:58.869Z,98457.51
2023-04-30T06:15:00.772Z,98458.08
2023-04-30T06:18:02.981Z,98461.27
2023-04-30T06:21:04.705Z,98462.16
2023-04-30T06:24:06.431Z,98465.64
2023-04-30T06:27:08.178Z,98466.47
2023-04-30T06:30:10.198Z,98465.98
2023-04-30T06:33:11.953Z,98468.90
2023-04-30T06:36:13.644Z,98468.27
2023-04-30T06:39:16.092Z,98468.09
2023-04-30T06:42:17.849Z,98470.50
2023-04-30T06:45:20.003Z,98474.83
2023-04-30T06:48:22.375Z,98474.37
2023-04-30T06:51:24.063Z,98475.63
2023-04-30T06:54:28.637Z,98477.58
2023-04-30T06:57:31.285Z,98478.80
2023-04-30T07:00:33.620Z,98484.14
2023-04-30T07:03:35.691Z,98483.84
2023-04-30T07:06:37.528Z,98486.33
2023-04-30T07:09:39.392Z,98484.65
2023-04-30T07:12:41.355Z,98485.23
2023-04-30T07:15:43.236Z,98485.58
2023-04-30T07:18:48.227Z,98480.00
2023-04-30T07:21:49.857Z,98473.97
2023-04-30T07:24:51.524Z,98473.63
2023-04-30T07:27:54.755Z,98475.90
2023-04-30T07:30:56.721Z,98471.30
2023-04-30T07:33:58.460Z,98481.92
2023-04-30T07:37:00.721Z,98480.48
2023-04-30T07:40:03.136Z,98483.41
2023-04-30T07:43:04.933Z,98488.17
2023-04-30T07:46:06.947Z,98490.08
2023-04-30T07:49:08.810Z,98489.02
2023-04-30T07:52:11.884Z,98492.86
2023-04-30T07:55:13.620Z,98499.80
2023-04-30T07:58:15.425Z,98502.46
2023-04-30T08:01:17.331Z,98510.23
2023-04-30T08:04:19.077Z,98513.84
2023-04-30T08:07:21.762Z,98511.99
2023-04-30T08:10:23.570Z,98516.55
2023-04-30T08:13:25.486Z,98515.41
2023-04-30T08:16:27.518Z,98515.13
2023-04-30T08:19:29.204Z,98515.60
2023-04-30T08:22:31.007Z,98525.42
2023-04-30T08:25:33.593Z,98521.73
2023-04-30T08:28:35.679Z,98521.65
2023-04-30T08:31:37.587Z,98521.98
2023-04-30T08:34:42.962Z,98521.08
2023-04-30T08:37:44.888Z,98523.42
2023-04-30T08:40:56.183Z,98522.80
2023-04-30T08:44:01.025Z,98520.44
2023-04-30T08:47:03.146Z,98523.14
2023-04-30T08:50:05.729Z,98522.84
2023-04-30T08:53:08.602Z,98525.83
2023-04-30T08:56:10.892Z,98524.02
2023-04-30T08:59:13.141Z,98525.85
2023-04-30T09:02:14.945Z,98531.82
2023-04-30T09:05:16.648Z,98532.94
2023-04-30T09:08:19.740Z,98531.95
2023-04-30T09:11:25.852Z,98532.78
2023-04-30T09:14:27.872Z,98536.06
2023-04-30T09:17:30.408Z,98539.44
2023-04-30T09:20:32.250Z,98543.64
2023-04-30T09:23:33.993Z,98544.29
2023-04-30T09:26:38.080Z,98550.02
2023-04-30T09:29:39.830Z,98546.73
2023-04-30T09:32:57.009Z,98550.55
2023-04-30T09:36:08.651Z,98547.77
2023-04-30T09:39:15.271Z,98544.79
2023-04-30T09:42:19.001Z,98550.66
2023-04-30T09:45:20.761Z,98556.27
2023-04-30T09:48:24.044Z,98547.48
2023-04-30T09:51:26.640Z,98545.73
2023-04-30T09:54:30.263Z,98550.36
2023-04-30T09:57:35.613Z,98545.89
2023-04-30T10:00:38.980Z,98545.79
2023-04-30T10:03:42.386Z,98547.52
2023-04-30T10:06:45.504Z,98541.65
2023-04-30T10:10:11.070Z,98533.34
2023-04-30T10:13:18.301Z,98531.66
2023-04-30T10:16:39.760Z,98528.18
2023-04-30T10:19:47.933Z,98530.64
2023-04-30T10:22:49.861Z,98524.22
2023-04-30T10:25:52.315Z,98517.89
2023-04-30T10:28:58.426Z,98526.25
2023-04-30T10:32:00.700Z,98527.34
2023-04-30T10:35:32.641Z,98525.55
2023-04-30T10:38:37.259Z,98525.17
2023-04-30T10:41:39.815Z,98530.50
2023-04-30T10:44:41.637Z,98519.89
2023-04-30T10:47:46.717Z,98512.27
2023-04-30T10:50:50.655Z,98507.24
2023-04-30T10:53:55.413Z,98513.00
2023-04-30T10:57:13.476Z,98514.70
2023-04-30T11:00:19.552Z,98507.79
2023-04-30T11:03:21.657Z,98508.80
2023-04-30T11:06:26.060Z,98510.48
2023-04-30T11:09:39.453Z,98507.46
2023-04-30T11:12:47.151Z,98501.75
2023-04-30T11:15:48.892Z,98501.98
2023-04-30T11:18:51.024Z,98505.38
2023-04-30T11:22:12.996Z,98509.17
2023-04-30T11:25:21.923Z,98507.00
2023-04-30T11:28:26.146Z,98507.92
2023-04-30T11:31:34.411Z,98505.99
2023-04-30T11:34:37.417Z,98504.05
2023-04-30T11:37:43.095Z,98508.56
2023-04-30T11:40:48.332Z,98512.59
2023-04-30T11:43:50.036Z,98507.80
2023-04-30T11:46:52.538Z,98511.66
2023-04-30T11:49:56.802Z,98508.27
2023-04-30T11:53:04.764Z,98508.77
2023-04-30T11:56:07.007Z,98513.71
2023-04-30T11:59:12.030Z,98515.48
2023-04-30T12:02:15.907Z,98520.40
2023-04-30T12:05:19.923Z,98517.63
2023-04-30T12:08:21.944Z,98519.82
2023-04-30T12:11:29.387Z,98517.14
2023-04-30T12:14:33.169Z,98520.09
2023-04-30T12:17:35.569Z,98522.40
2023-04-30T12:20:37.663Z,98524.25
2023-04-30T12:23:39.696Z,98523.77
2023-04-30T12:26:41.768Z,98516.92
2023-04-30T12:29:45.861Z,98519.09
2023-04-30T12:32:52.589Z,98522.09
2023-04-30T12:35:57.347Z,98512.64
2023-04-30T12:39:06.602Z,98510.33
2023-04-30T12:42:08.584Z,98512.64
2023-04-30T12:45:11.091Z,98507.09
2023-04-30T12:48:14.665Z,98512.02
2023-04-30T12:51:19.404Z,98505.60
2023-04-30T12:54:26.084Z,98504.91
2023-04-30T12:57:28.435Z,98500.55
2023-04-30T13:00:45.643Z,98497.72
2023-04-30T13:03:47.768Z,98498.40
2023-04-30T13:06:49.614Z,98493.65
2023-04-30T13:09:51.555Z,98493.18
2023-04-30T13:12:53.477Z,98494.70
2023-04-30T13:15:55.269Z,98495.86
2023-04-30T13:18:56.939Z,98490.41
2023-04-30T13:21:59.062Z,98490.84
2023-04-30T13:25:00.744Z,98492.41
2023-04-30T13:28:02.478Z,98490.95
2023-04-30T13:31:04.231Z,98484.60
2023-04-30T13:34:06.089Z,98484.93
2023-04-30T13:37:08.259Z,98483.75
2023-04-30T13:40:10.274Z,98481.52
2023-04-30T13:43:11.963Z,98479.88
2023-04-30T13:46:14.466Z,98487.41
2023-04-30T13:49:16.220Z,98490.66
2023-04-30T13:52:17.959Z,98491.25
2023-04-30T13:55:19.814Z,98490.49
2023-04-30T13:58:21.518Z,98488.20
2023-04-30T14:01:23.288Z,98487.09
2023-04-30T14:04:25.053Z,98489.46
2023-04-30T14:07:26.825Z,98491.03
2023-04-30T14:10:28.622Z,98491.35
2023-04-30T14:13:30.529Z,98488.91
2023-04-30T14:16:32.392Z,98494.89
2023-04-30T14:19:34.415Z,98493.05
2023-04-30T14:22:37.844Z,98488.80
2023-04-30T14:25:39.757Z,98489.92
2023-04-30T14:28:41.515Z,98489.42
2023-04-30T14:31:43.223Z,98493.89
2023-04-30T14:34:44.975Z,98492.45
2023-04-30T14:37:46.629Z,98494.66
2023-04-30T14:40:48.315Z,98489.08
2023-04-30T14:43:52.008Z,98495.29
2023-04-30T14:46:53.888Z,98494.08
2023-04-30T14:49:58.433Z,98493.13
2023-04-30T14:53:00.150Z,98490.98
2023-04-30T14:56:03.049Z,98494.80
2023-04-30T14:59:04.790Z,98496.15
2023-04-30T15:02:06.599Z,98501.60
2023-04-30T15:05:08.665Z,98501.12
2023-04-30T15:08:10.356Z,98501.74
2023-04-30T15:11:12.643Z,98500.47
2023-04-30T15:14:16.275Z,98505.90
2023-04-30T15:17:18.010Z,98507.33
2023-04-30T15:20:19.824Z,98505.88
2023-04-30T15:23:22.091Z,98503.66
2023-04-30T15:26:25.265Z,98508.82
2023-04-30T15:29:27.082Z,98511.23
2023-04-30T15:32:29.295Z,98507.06
2023-04-30T15:35:31.456Z,98505.73
2023-04-30T15:38:33.934Z,98507.16
2023-04-30T15:41:35.956Z,98508.03
2023-04-30T15:44:38.063Z,98506.94
2023-04-30T15:47:40.563Z,98501.63
2023-04-30T15:50:42.339Z,98507.67
2023-04-30T15:53:44.052Z,98512.24
2023-04-30T15:56:47.184Z,98507.66
2023-04-30T15:59:48.858Z,98508.61
2023-04-30T16:02:51.738Z,98512.23
2023-04-30T16:06:11.895Z,98509.63
2023-04-30T16:09:17.423Z,98505.88
2023-04-30T16:12:21.068Z,98504.41
2023-04-30T16:15:24.838Z,98503.33
2023-04-30T16:18:30.123Z,98502.45
2023-04-30T16:21:36.630Z,98505.29
2023-04-30T16:24:43.110Z,98506.81
2023-04-30T16:27:46.404Z,98508.16
2023-04-30T16:30:50.075Z,98508.71
2023-04-30T16:33:53.217Z,98505.92
2023-04-30T16:36:56.386Z,98499.16
2023-04-30T16:40:00.468Z,98498.70
2023-04-30T16:46:10.777Z,98503.80
2023-04-30T16:49:13.869Z,98502.98
2023-04-30T16:52:18.931Z,98498.95
2023-04-30T16:55:22.045Z,98503.51
2023-04-30T16:58:25.271Z,98504.59
2023-04-30T17:01:28.367Z,98508.16
2023-04-30T17:04:31.762Z,98508.37
2023-04-30T17:07:34.755Z,98513.92
2023-04-30T17:10:39.066Z,98519.08
2023-04-30T17:13:43.770Z,98525.90
2023-04-30T17:16:47.069Z,98530.56
2023-04-30T17:19:50.032Z,98533.67
2023-04-30T17:22:53.497Z,98538.02
2023-04-30T17:25:56.536Z,98540.81
2023-04-30T17:28:59.533Z,98545.02
2023-04-30T17:32:02.637Z,98546.80
2023-04-30T17:35:06.793Z,98550.99
2023-04-30T17:38:09.816Z,98553.85
2023-04-30T17:41:12.865Z,98553.55
2023-04-30T17:44:16.856Z,98556.42
2023-04-30T17:47:19.916Z,98558.72
2023-04-30T17:50:23.015Z,98564.38
2023-04-30T17:53:26.056Z,98564.73
2023-04-30T17:56:33.047Z,98568.94
2023-04-30T17:59:38.539Z,98572.59
2023-04-30T18:02:41.893Z,98572.39
2023-04-30T18:05:45.196Z,98577.00
2023-04-30T18:08:48.167Z,98576.96
2023-04-30T18:11:51.844Z,98578.66
2023-04-30T18:14:55.021Z,98580.98
2023-04-30T18:17:59.389Z,98584.27
2023-04-30T18:21:03.742Z,98586.43
2023-04-30T18:24:06.703Z,98586.16
2023-04-30T18:27:10.203Z,98592.40
2023-04-30T18:30:13.479Z,98596.30
2023-04-30T18:33:16.439Z,98597.30
2023-04-30T18:36:19.677Z,98595.33
2023-04-30T18:39:22.780Z,98598.07
2023-04-30T18:42:25.968Z,98600.44
2023-04-30T18:45:29.047Z,98599.92
2023-04-30T18:48:32.438Z,98605.89
2023-04-30T18:51:35.495Z,98609.09
2023-04-30T18:54:38.502Z,98601.08
2023-04-30T18:57:42.461Z,98604.98
2023-04-30T19:00:45.764Z,98605.25
2023-04-30T19:03:48.857Z,98612.05
2023-04-30T19:06:54.470Z,98611.62
2023-04-30T19:09:58.421Z,98614.85
2023-04-30T19:13:01.658Z,98618.59
2023-04-30T19:16:04.771Z,98622.77
2023-04-30T19:19:07.748Z,98621.52
2023-04-30T19:22:11.711Z,98624.98
2023-04-30T19:25:14.768Z,98625.24
2023-04-30T19:28:17.772Z,98627.69
2023-04-30T19:31:22.388Z,98627.46
2023-04-30T19:34:28.496Z,98631.17
2023-04-30T19:37:31.653Z,98631.73
2023-04-30T19:40:34.681Z,98632.91
2023-04-30T19:43:38.194Z,98636.84
2023-04-30T19:46:42.418Z,98638.43
2023-04-30T19:49:47.384Z,98641.27
2023-04-30T19:52:50.387Z,98639.77
2023-04-30T19:55:53.570Z,98641.19
2023-04-30T19:58:56.894Z,98637.94
2023-04-30T20:01:59.937Z,98641.26
2023-04-30T20:05:04.895Z,98640.61
2023-04-30T20:08:09.671Z,98638.63
2023-04-30T20:11:12.820Z,98639.98
2023-04-30T20:14:16.011Z,98644.45
2023-04-30T20:17:19.204Z,98643.49
2023-04-30T20:20:25.895Z,98640.96
2023-04-30T20:23:28.927Z,98643.55
2023-04-30T20:26:32.156Z,98645.98
2023-04-30T20:29:36.025Z,98644.31
2023-04-30T20:32:40.555Z,98646.50
2023-04-30T20:35:45.671Z,98649.95
2023-04-30T20:38:49.101Z,98651.62
2023-04-30T20:41:53.392Z,98652.53
2023-04-30T20:44:56.574Z,98655.11
2023-04-30T20:47:59.568Z,98652.48
2023-04-30T20:51:02.538Z,98652.95
2023-04-30T20:54:05.706Z,98652.14
2023-04-30T20:57:09.087Z,98650.23
2023-04-30T21:00:13.362Z,98649.27
2023-04-30T21:03:16.917Z,98651.54
2023-04-30T21:06:20.415Z,98649.23
2023-04-30T21:09:23.434Z,98656.36
2023-04-30T21:12:28.035Z,98653.98
2023-04-30T21:15:35.304Z,98656.70
2023-04-30T21:18:38.445Z,98666.89
2023-04-30T21:21:41.405Z,98671.02
2023-04-30T21:24:44.393Z,98671.06
2023-04-30T21:27:47.495Z,98670.02
2023-04-30T21:30:50.563Z,98673.85
2023-04-30T21:33:53.762Z,98679.42
2023-04-30T21:36:57.120Z,98681.45
2023-04-30T21:40:00.044Z,98680.80
2023-04-30T21:43:03.863Z,98680.70
2023-04-30T21:46:07.444Z,98680.48
2023-04-30T21:49:10.553Z,98681.86
2023-04-30T21:52:13.663Z,98685.66
2023-04-30T21:55:17.190Z,98685.30
2023-04-30T21:58:20.129Z,98692.79
2023-04-30T22:01:27.552Z,98695.03
2023-04-30T22:04:30.822Z,98699.77
2023-04-30T22:07:34.233Z,98704.55
2023-04-30T22:10:37.247Z,98707.11
2023-04-30T22:13:40.230Z,98705.09
2023-04-30T22:16:43.686Z,98713.80
2023-04-30T22:19:46.794Z,98713.02
2023-04-30T22:22:49.774Z,98713.27
2023-04-30T22:25:53.420Z,98722.40
2023-04-30T22:28:57.201Z,98724.73
2023-04-30T22:32:01.546Z,98725.09
2023-04-30T22:35:06.940Z,98724.32
2023-04-30T22:38:11.054Z,98725.75
2023-04-30T22:41:14.276Z,98728.45
2023-04-30T22:44:17.971Z,98727.98
2023-04-30T22:47:21.166Z,98722.52
2023-04-30T22:50:24.180Z,98720.91
2023-04-30T22:53:28.515Z,98724.25
2023-04-30T22:56:31.796Z,98721.77
2023-04-30T22:59:34.838Z,98719.77
2023-04-30T23:02:37.879Z,98721.73
2023-04-30T23:05:40.984Z,98721.75
2023-04-30T23:08:44.384Z,98723.89
2023-04-30T23:11:48.298Z,98723.50
2023-04-30T23:14:51.539Z,98723.31
2023-04-30T23:17:54.789Z,98721.41
2023-04-30T23:20:59.016Z,98718.89
2023-04-30T23:24:03.960Z,98718.77
2023-04-30T23:27:08.124Z,98721.49
2023-04-30T23:30:11.449Z,98719.60
2023-04-30T23:33:14.461Z,98719.73
2023-04-30T23:36:17.488Z,98718.76
2023-04-30T23:39:20.596Z,98718.11
2023-04-30T23:42:23.632Z,98716.39
2023-04-30T23:45:26.668Z,98716.83
2023-04-30T23:48:30.480Z,98712.40
2023-04-30T23:51:33.554Z,98709.86
2023-04-30T23:54:36.640Z,98710.48
2023-04-30T23:57:39.621Z,98712.14
